地図

経路データ

SID SEASON NUMBER BASIN SUBBASIN NAME ISO_TIME NATURE LAT LON WMO_WIND WMO_PRES WMO_AGENCY TRACK_TYPE DIST2LAND LANDFALL IFLAG USA_AGENCY USA_ATCF_ID USA_LAT USA_LON USA_RECORD USA_STATUS USA_WIND USA_PRES USA_SSHS USA_R34_NE USA_R34_SE USA_R34_SW USA_R34_NW USA_R50_NE USA_R50_SE USA_R50_SW USA_R50_NW USA_R64_NE USA_R64_SE USA_R64_SW USA_R64_NW USA_POCI USA_ROCI USA_RMW USA_EYE TOKYO_LAT TOKYO_LON TOKYO_GRADE TOKYO_WIND TOKYO_PRES TOKYO_R50_DIR TOKYO_R50_LONG TOKYO_R50_SHORT TOKYO_R30_DIR TOKYO_R30_LONG TOKYO_R30_SHORT TOKYO_LAND CMA_LAT CMA_LON CMA_CAT CMA_WIND CMA_PRES HKO_LAT HKO_LON HKO_CAT HKO_WIND HKO_PRES NEWDELHI_LAT NEWDELHI_LON NEWDELHI_GRADE NEWDELHI_WIND NEWDELHI_PRES NEWDELHI_CI NEWDELHI_DP NEWDELHI_POCI REUNION_LAT REUNION_LON REUNION_TYPE REUNION_WIND REUNION_PRES REUNION_TNUM REUNION_CI REUNION_RMW REUNION_R34_NE REUNION_R34_SE REUNION_R34_SW REUNION_R34_NW REUNION_R50_NE REUNION_R50_SE REUNION_R50_SW REUNION_R50_NW REUNION_R64_NE REUNION_R64_SE REUNION_R64_SW REUNION_R64_NW BOM_LAT BOM_LON BOM_TYPE BOM_WIND BOM_PRES BOM_TNUM BOM_CI BOM_RMW BOM_R34_NE BOM_R34_SE BOM_R34_SW BOM_R34_NW BOM_R50_NE BOM_R50_SE BOM_R50_SW BOM_R50_NW BOM_R64_NE BOM_R64_SE BOM_R64_SW BOM_R64_NW BOM_ROCI BOM_POCI BOM_EYE BOM_POS_METHOD BOM_PRES_METHOD NADI_LAT NADI_LON NADI_CAT NADI_WIND NADI_PRES WELLINGTON_LAT WELLINGTON_LON WELLINGTON_WIND WELLINGTON_PRES DS824_LAT DS824_LON DS824_STAGE DS824_WIND DS824_PRES TD9636_LAT TD9636_LON TD9636_STAGE TD9636_WIND TD9636_PRES TD9635_LAT TD9635_LON TD9635_WIND TD9635_PRES TD9635_ROCI NEUMANN_LAT NEUMANN_LON NEUMANN_CLASS NEUMANN_WIND NEUMANN_PRES MLC_LAT MLC_LON MLC_CLASS MLC_WIND MLC_PRES USA_GUST BOM_GUST BOM_GUST_PER REUNION_GUST REUNION_GUST_PER USA_SEAHGT USA_SEARAD_NE USA_SEARAD_SE USA_SEARAD_SW USA_SEARAD_NW STORM_SPEED STORM_DIR
1982027S16120 1982 7 SI WA GRAHAM 1982-01-26 18:00:00 TS -15.7000 120.000 main 291 240 ____________O_ -1 -15.7000 120.000 TC 25 1002 14 160
1982027S16120 1982 7 SI WA GRAHAM 1982-01-26 21:00:00 TS -16.3551 120.252 main 225 192 ____________P_ -1 -16.3551 120.252 TC 25 1001 11 154
1982027S16120 1982 7 SI WA GRAHAM 1982-01-27 00:00:00 TS -16.7000 120.500 main 192 173 ____________O_ -1 -16.7000 120.500 TC 25 1001 5 114
1982027S16120 1982 7 SI WA GRAHAM 1982-01-27 03:00:00 TS -16.5599 120.743 main 177 173 ____________P_ -1 -16.5599 120.743 TC 27 1000 6 29
1982027S16120 1982 7 SI WA GRAHAM 1982-01-27 06:00:00 TS -16.1800 120.800 25 1002 bom main 188 180 ______O_____O_ -1 -15.7000 120.000 20 25 1002 2.00000 -16.3000 121.000 TC 30 1000 4 26
1982027S16120 1982 7 SI WA GRAHAM 1982-01-27 09:00:00 TS -16.2033 120.923 25 1002 bom main 180 156 ______O_____P_ -1 -15.9000 120.200 20 25 1002 2.00000 -16.3550 121.285 TC 32 999 3 108
1982027S16120 1982 7 SI WA GRAHAM 1982-01-27 12:00:00 TS -16.2857 121.129 25 1001 bom main 156 123 ______O_____O_ -1 -16.0000 120.500 20 25 1001 2.00000 -16.5000 121.600 TC 35 998 5 115
1982027S16120 1982 7 SI WA GRAHAM 1982-01-27 15:00:00 TS -16.4075 121.382 25 1001 bom main 123 100 ______O_____P_ -1 -16.2000 120.800 20 25 1001 2.00000 -16.6151 121.965 TC 37 996 5 113
1982027S16120 1982 7 SI WA GRAHAM 1982-01-27 18:00:00 TS -16.5000 121.650 25 1000 bom main 92 70 ______O_____O_ -1 -16.3000 121.000 20 25 1000 2.00000 -16.7000 122.300 TC 40 994 5 106
1982027S16120 1982 7 SI WA GRAHAM 1982-01-27 21:00:00 TS -16.5537 121.915 30 999 bom main 70 54 ______O_____P_ -1 -16.4000 121.300 20 30 999 2.50000 -16.7074 122.530 TC 42 992 5 102
1982027S16120 1982 7 SI WA GRAHAM 1982-01-28 00:00:00 TS -16.6000 122.150 30 998 bom main 46 24 ______O_____O_ -1 -16.5000 121.600 20 30 998 2.50000 -16.7000 122.700 TC 45 991 5 104
1982027S16120 1982 7 SI WA GRAHAM 1982-01-28 03:00:00 TS -16.6712 122.421 30 996 bom main 24 10 ______O_____P_ -1 -16.6000 122.000 20 30 996 2.50000 -16.7424 122.843 TC 47 989 5 107
1982027S16120 1982 7 SI WA GRAHAM 1982-01-28 06:00:00 TS -16.7500 122.650 40 994 bom main 0 0 ______O_____O_ -1 -16.7000 122.300 30 40 994 3.00000 1008 -16.8000 123.000 TC 50 988 5 101
1982027S16120 1982 7 SI WA GRAHAM 1982-01-28 09:00:00 TS -16.7750 122.975 40 991 bom main 0 0 ______O_____P_ -1 -16.7000 122.700 30 40 991 3.00000 -16.8501 123.250 TC 47 989 6 100
1982027S16120 1982 7 SI WA GRAHAM 1982-01-28 12:00:00 TS -16.8500 123.250 40 988 bom main 21 11 ______O_____O_ -1 -16.8000 123.000 30 40 988 3.00000 -16.9000 123.500 TC 45 991 5 102
1982027S16120 1982 7 SI WA GRAHAM 1982-01-28 15:00:00 TS -16.8750 123.483 40 990 bom main 22 21 ______O_____P_ -1 -16.8000 123.300 30 40 990 3.00000 -16.9499 123.665 TC 42 990 4 105
1982027S16120 1982 7 SI WA GRAHAM 1982-01-28 18:00:00 TS -16.9500 123.650 40 991 bom main 10 0 ______O_____O_ -1 -16.9000 123.500 30 40 991 3.00000 -17.0000 123.800 TC 40 990 4 111
1982027S16120 1982 7 SI WA GRAHAM 1982-01-28 21:00:00 TS -17.0137 123.868 45 990 bom main 0 0 ______O_____P_ -1 -17.0000 123.800 30 45 990 3.00000 -17.0274 123.935 TC 37 991 5 109
1982027S16120 1982 7 SI WA GRAHAM 1982-01-29 00:00:00 TS -17.1000 124.100 40 992 bom main 0 0 ______O_____O_ -1 -17.1000 124.100 30 40 992 3.00000 -17.1000 124.100 TC 35 992 5 122
1982027S16120 1982 7 SI WA GRAHAM 1982-01-29 03:00:00 TS -17.2850 124.317 40 994 bom main 0 0 ______O_____P_ -1 -17.3000 124.300 30 40 994 3.00000 -17.2700 124.335 TC 35 993 6 130
1982027S16120 1982 7 SI WA GRAHAM 1982-01-29 06:00:00 TS -17.5000 124.600 35 995 bom main 0 0 ______O_____O_ -1 -17.5000 124.600 30 35 995 1006 -17.5000 124.600 TC 35 995 7 132
1982027S16120 1982 7 SI WA GRAHAM 1982-01-29 09:00:00 TS -17.7713 124.886 30 996 bom main 0 0 ______O_____P_ -1 -17.8000 124.900 20 30 996 -17.7425 124.872 TC 35 995 7 136
1982027S16120 1982 7 SI WA GRAHAM 1982-01-29 12:00:00 TS -18.0000 125.100 30 996 bom main 0 0 ______O_____O_ -1 -18.0000 125.100 20 30 996 -18.0000 125.100 TC 35 996 6 147
1982027S16120 1982 7 SI WA GRAHAM 1982-01-29 15:00:00 TS -18.2787 125.226 25 997 bom main 0 0 ______O_____P_ -1 -18.3000 125.200 20 25 997 -18.2575 125.253 TC 35 997 5 159
1982027S16120 1982 7 SI WA GRAHAM 1982-01-29 18:00:00 TS -18.5000 125.300 25 998 bom main 0 0 ______O_____O_ -1 -18.5000 125.300 20 25 998 -18.5000 125.300 TC 35 998 4 177
1982027S16120 1982 7 SI WA GRAHAM 1982-01-29 21:00:00 TS -18.7150 125.226 25 998 bom main 0 0 ______O_____P_ -1 -18.7000 125.200 20 25 998 -18.7299 125.253 TC 32 998 4 205
1982027S16120 1982 7 SI WA GRAHAM 1982-01-30 00:00:00 TS -18.9000 125.100 20 999 bom main 0 0 ______O_____O_ -1 -18.9000 125.100 20 20 999 -18.9000 125.100 TC 30 999 4 228
1982027S16120 1982 7 SI WA GRAHAM 1982-01-30 03:00:00 TS -18.9899 124.909 20 999 bom main 0 0 ______O_____P_ -1 -19.0000 124.900 20 20 999 -18.9798 124.917 TC 30 999 5 258
1982027S16120 1982 7 SI WA GRAHAM 1982-01-30 06:00:00 TS -19.0000 124.600 20 999 bom main 0 0 ______O_____O_ -1 -19.0000 124.600 20 20 999 1006 -19.0000 124.600 TC 30 999 8 270
1982027S16120 1982 7 SI WA GRAHAM 1982-01-30 09:00:00 TS -18.9927 124.086 20 999 bom main 0 0 ______O_____P_ -1 -19.0000 124.100 20 20 999 -18.9853 124.072 TC 30 999 10 270
1982027S16120 1982 7 SI WA GRAHAM 1982-01-30 12:00:00 TS -19.0000 123.500 20 999 bom main 0 0 ______O_____O_ -1 -19.0000 123.500 20 20 999 -19.0000 123.500 TC 30 999 10 262
1982027S16120 1982 7 SI WA GRAHAM 1982-01-30 15:00:00 TS -19.1249 123.081 20 999 bom main 0 0 ______O_____P_ -1 -19.1000 123.100 20 20 999 -19.1498 123.063 TC 30 999 9 257
1982027S16120 1982 7 SI WA GRAHAM 1982-01-30 18:00:00 TS -19.2000 122.600 25 999 bom main 0 0 O_____O___O_O_ jtwc_sh SH171982 -18.8000 122.200 25 -1 -19.3000 122.700 20 25 999 -18.8000 122.200 1 25 -19.3000 122.700 TC 30 999 7 264
1982027S16120 1982 7 SI WA GRAHAM 1982-01-30 21:00:00 TS -19.1924 122.348 25 999 bom main 0 0 P_____O___P_P_ SH171982 -18.9501 122.282 25 -1 -19.3000 122.400 20 25 999 -18.9445 122.249 1 25 -19.3299 122.377 TC 30 999 4 268
1982027S16120 1982 7 SI WA GRAHAM 1982-01-31 00:00:00 TS -19.2124 122.175 25 999 bom main 0 0 O_____O___P_O_ jtwc_sh SH171982 -19.1000 122.300 25 -1 -19.3000 122.100 20 25 999 -19.0913 122.249 1 25 -19.3000 122.100 TC 30 999 3 262
1982027S16120 1982 7 SI WA GRAHAM 1982-01-31 03:00:00 TS -19.2411 122.003 25 999 bom main 0 0 P_____O___P_P_ SH171982 -19.2498 122.190 25 -1 -19.2000 121.800 20 25 999 -19.2424 122.149 1 25 -19.2723 121.873 TC 32 999 4 258
1982027S16120 1982 7 SI WA GRAHAM 1982-01-31 06:00:00 TS -19.3000 121.750 30 999 bom main 0 0 O_____O___O_O_ jtwc_sh SH171982 -19.4000 121.900 25 -1 -19.2000 121.600 20 30 999 1006 -19.4000 121.900 1 25 -19.2000 121.600 TC 35 999 7 271
1982027S16120 1982 7 SI WA GRAHAM 1982-01-31 09:00:00 TS -19.2264 121.308 35 994 bom main 10 10 P_____O___P_P_ SH171982 -19.5428 121.395 25 -1 -18.8000 121.200 30 35 994 3.00000 -19.5651 121.472 1 26 -18.9977 121.164 TC 37 992 9 269
1982027S16120 1982 7 SI WA GRAHAM 1982-01-31 12:00:00 TS -19.3092 120.781 50 985 bom main 35 30 O_____O___P_O_ jtwc_sh SH171982 -19.7000 120.800 25 -1 -18.9000 120.700 30 50 985 3.50000 -19.7370 120.926 1 27 -18.9000 120.700 TC 40 985 10 251
1982027S16120 1982 7 SI WA GRAHAM 1982-01-31 15:00:00 TS -19.5388 120.331 50 985 bom main 39 22 P_____O___P_P_ SH171982 -19.8925 120.263 27 -1 -19.2000 120.400 30 50 985 3.50000 -19.9151 120.341 1 28 -19.1474 120.320 TC 42 983 10 239
1982027S16120 1982 7 SI WA GRAHAM 1982-01-31 18:00:00 TS -19.8000 119.900 55 982 bom main 22 10 O_____O___O_O_ jtwc_sh SH171982 -20.1000 119.800 30 -1 -19.5000 120.000 30 55 982 4.00000 -20.1000 119.800 1 30 -19.5000 120.000 TC 45 982 8 236
1982027S16120 1982 7 SI WA GRAHAM 1982-01-31 21:00:00 TS -19.9939 119.617 55 982 bom main 11 0 P_____O___P_P_ SH171982 -20.2997 119.477 30 -1 -19.7000 119.800 30 55 982 4.00000 -20.2837 119.425 1 31 -19.6922 119.765 TC 52 981 7 234
1982027S16120 1982 7 SI WA GRAHAM 1982-02-01 00:00:00 TS -20.1941 119.326 55 980 bom main 0 0 O_____O___P_O_ jtwc_sh SH171982 -20.5000 119.200 30 -1 -19.9000 119.500 30 55 980 4.00000 -20.4763 119.104 1 32 -19.9000 119.500 TC 60 980 8 232
1982027S16120 1982 7 SI WA GRAHAM 1982-02-01 03:00:00 TS -20.4752 118.961 45 980 bom main 0 0 P_____O___P_P_ SH171982 -20.6925 118.857 32 -1 -20.3000 119.100 30 45 980 -20.6807 118.806 1 33 -20.2276 119.080 TC 57 981 9 233
1982027S16120 1982 7 SI WA GRAHAM 1982-02-01 06:00:00 TS -20.7500 118.550 40 982 bom main 0 0 O_____O___O_O_ jtwc_sh SH171982 -20.9000 118.500 35 0 -20.6000 118.600 30 40 982 1006 -20.9000 118.500 2 35 -20.6000 118.600 TC 55 982 9 234
1982027S16120 1982 7 SI WA GRAHAM 1982-02-01 09:00:00 TS -21.0208 118.145 35 990 bom main 0 0 P_____O___P_P_ SH171982 -21.1424 118.157 32 -1 -20.9000 118.100 30 35 990 -21.0983 118.178 2 32 -20.9424 118.142 TC 47 988 9 232
1982027S16120 1982 7 SI WA GRAHAM 1982-02-01 12:00:00 TS -21.3290 117.759 30 994 bom main 0 0 O_____O___P_O_ jtwc_sh SH171982 -21.4000 117.800 30 -1 -21.3000 117.700 20 30 994 -21.3162 117.837 2 30 -21.3000 117.700 TC 40 994 10 229
1982027S16120 1982 7 SI WA GRAHAM 1982-02-01 15:00:00 TS -21.6777 117.346 25 997 bom main 0 0 P_____O___P_P_ SH171982 -21.6273 117.430 27 -1 -21.8000 117.200 20 25 997 -21.5761 117.453 2 27 -21.7073 117.300 TC 35 996 10 228
1982027S16120 1982 7 SI WA GRAHAM 1982-02-01 18:00:00 TS -22.0000 116.950 25 999 bom main 0 0 O_____O___O_O_ jtwc_sh SH171982 -21.9000 117.000 25 -1 -22.1000 116.900 20 25 999 -21.9000 117.000 1 25 -22.1000 116.900 TC 30 999 11 229
1982027S16120 1982 7 SI WA GRAHAM 1982-02-01 21:00:00 TS -22.3774 116.484 20 1000 bom main 0 0 P_____O___P_P_ SH171982 -22.2548 116.495 22 -1 -22.5000 116.500 20 20 1000 -22.3024 116.462 1 23 -22.4522 116.480 TC 27 1000 12 233
1982027S16120 1982 7 SI WA GRAHAM 1982-02-02 00:00:00 TS -22.7170 115.938 20 1001 bom main 0 0 O_____O___P_O_ jtwc_sh SH171982 -22.7000 115.900 20 -1 -22.7000 116.000 80 20 1001 -22.7682 115.851 1 22 -22.7000 116.000 TC 25 1001 12 240
1982027S16120 1982 7 SI WA GRAHAM 1982-02-02 03:00:00 TS -22.9997 115.335 20 1001 bom main 0 0 P_____O___P_P_ SH171982 -23.2282 115.224 20 -1 -22.7000 115.500 80 20 1001 -23.2748 115.190 1 21 -22.7956 115.427 TC 25 1001 13 244
1982027S16120 1982 7 SI WA GRAHAM 1982-02-02 06:00:00 TS -23.3000 114.650 20 1002 bom main 0 O_____O___O_O_ jtwc_sh SH171982 -23.8000 114.500 20 -1 -22.8000 114.800 80 20 1002 -23.8000 114.500 1 20 -22.8000 114.800 TC 25 1002 14 245

IBTrACS Databaseについて

本データベースは、米国NOAAが公開する1842年以降の世界の熱帯低気圧のベストトラックデータアーカイブInternational Best Track Archive for Climate Stewardship (IBTrACS)を、ウェブで閲覧しやすい形式に変換したものです。

最終更新日:2021-11-26